Time;durP1;ratioP1;P1;durP2;ratioP2;P2;SDS_P1;SDS_P2;PMS_P1;PMS_P2;Temp;Humidity;BMP_temperature;BMP_pressure;BME280_temperature;BME280_humidity;BME280_pressure;Samples;Min_cycle;Max_cycle;Signal;HPM_P1;HPM_P2
2023/06/22 00:00:21;;;;;;;6.63;2.17;;;21.70;99.90;;;;;;5030843;28;20228;-85
2023/06/22 00:02:53;;;;;;;3.90;2.17;;;21.80;99.90;;;;;;5023214;28;20221;-84
2023/06/22 00:05:25;;;;;;;4.57;2.20;;;21.80;99.90;;;;;;5031603;28;20200;-84
2023/06/22 00:07:56;;;;;;;2.87;1.70;;;21.60;99.90;;;;;;5031132;28;20204;-84
2023/06/22 00:10:27;;;;;;;4.00;1.90;;;21.50;99.90;;;;;;5035517;28;20684;-85
2023/06/22 00:12:58;;;;;;;3.93;1.83;;;21.40;99.90;;;;;;5033457;28;20791;-86
2023/06/22 00:15:30;;;;;;;3.73;2.00;;;21.20;99.90;;;;;;5033539;28;20254;-86
2023/06/22 00:18:03;;;;;;;4.43;2.30;;;21.00;99.90;;;;;;5027195;28;20240;-87
2023/06/22 00:20:36;;;;;;;2.70;2.17;;;21.10;99.90;;;;;;5032671;28;20639;-86
2023/06/22 00:23:08;;;;;;;1.93;1.80;;;21.20;99.90;;;;;;5029811;28;20204;-86
2023/06/22 00:25:41;;;;;;;3.33;2.00;;;21.20;99.90;;;;;;5041346;28;20549;-85
2023/06/22 00:28:11;;;;;;;4.13;1.93;;;21.40;99.90;;;;;;5038696;28;20200;-85
2023/06/22 00:30:42;;;;;;;3.83;1.90;;;21.50;99.90;;;;;;5034243;28;20205;-85
2023/06/22 00:33:15;;;;;;;2.40;1.90;;;21.80;99.90;;;;;;5020791;28;20220;-84
2023/06/22 00:35:46;;;;;;;2.83;2.00;;;22.10;99.90;;;;;;5018676;28;20715;-85
2023/06/22 00:38:17;;;;;;;2.37;1.83;;;22.10;99.90;;;;;;5028516;28;20236;-85
2023/06/22 00:40:48;;;;;;;3.67;2.13;;;22.00;99.90;;;;;;5027232;28;20618;-84
2023/06/22 00:43:19;;;;;;;3.33;2.10;;;22.20;99.90;;;;;;5017256;28;20255;-84
2023/06/22 00:45:50;;;;;;;2.73;1.97;;;22.30;99.90;;;;;;5032910;28;20205;-84
2023/06/22 00:48:23;;;;;;;2.20;1.70;;;22.20;99.90;;;;;;5024395;28;20219;-84
2023/06/22 00:50:55;;;;;;;3.50;2.10;;;22.40;99.90;;;;;;5032030;28;20231;-83
2023/06/22 00:53:26;;;;;;;3.07;1.77;;;22.90;99.90;;;;;;5018790;28;20208;-83
2023/06/22 00:55:59;;;;;;;2.63;1.87;;;23.20;99.90;;;;;;5031519;28;20210;-84
2023/06/22 00:58:31;;;;;;;2.87;2.00;;;23.00;99.90;;;;;;5034174;28;20236;-83
2023/06/22 01:01:02;;;;;;;3.20;1.90;;;23.10;99.90;;;;;;5024584;28;20276;-84
2023/06/22 01:03:35;;;;;;;2.43;1.80;;;23.30;99.90;;;;;;5028080;28;20227;-84
2023/06/22 01:06:11;;;;;;;4.80;2.17;;;23.60;99.90;;;;;;5037027;28;20209;-84
2023/06/22 01:08:49;;;;;;;3.33;1.80;;;23.70;99.90;;;;;;5030645;28;20205;-85
2023/06/22 01:11:26;;;;;;;3.97;2.20;;;23.80;99.90;;;;;;5028561;28;20209;-85
2023/06/22 01:14:04;;;;;;;2.50;1.93;;;23.50;99.90;;;;;;5032280;28;20208;-87
2023/06/22 01:16:38;;;;;;;4.57;1.80;;;23.60;99.90;;;;;;5068046;28;20205;-86
2023/06/22 01:19:29;;;;;;;2.93;1.63;;;23.90;99.90;;;;;;5044879;28;20223;-86
2023/06/22 01:22:03;;;;;;;3.23;1.47;;;23.90;99.90;;;;;;5029012;28;20209;-86
2023/06/22 01:24:43;;;;;;;4.57;2.70;;;24.30;99.90;;;;;;5041028;28;20287;-89
2023/06/22 01:27:26;;;;;;;2.90;2.00;;;24.50;99.90;;;;;;5039091;28;20201;-85
2023/06/22 01:30:05;;;;;;;3.20;1.97;;;24.70;99.90;;;;;;5031953;28;20203;-85
2023/06/22 01:32:37;;;;;;;6.30;1.70;;;24.50;99.90;;;;;;5029066;28;20205;-85
2023/06/22 01:35:09;;;;;;;2.83;1.97;;;24.40;99.90;;;;;;5022898;28;20223;-84
2023/06/22 01:37:41;;;;;;;4.57;1.63;;;24.40;99.90;;;;;;5026174;28;20764;-84
2023/06/22 01:40:13;;;;;;;2.90;1.60;;;24.50;99.90;;;;;;5022800;28;20221;-85
2023/06/22 01:42:44;;;;;;;5.50;3.30;;;24.50;99.90;;;;;;5019874;28;20212;-85
2023/06/22 01:45:19;;;;;;;2.00;1.80;;;24.40;99.90;;;;;;5040864;28;20205;-95
2023/06/22 01:47:50;;;;;;;3.00;2.10;;;24.20;99.90;;;;;;5022794;28;20583;-83
2023/06/22 01:50:21;;;;;;;2.40;1.70;;;24.00;99.90;;;;;;5027225;28;20212;-84
2023/06/22 01:52:52;;;;;;;1.93;1.60;;;23.90;99.90;;;;;;5023541;28;20676;-84
2023/06/22 01:55:24;;;;;;;3.23;1.87;;;23.90;99.90;;;;;;5030367;28;20211;-85
2023/06/22 01:57:55;;;;;;;2.90;1.70;;;23.60;99.90;;;;;;5035491;28;20233;-85
2023/06/22 02:00:33;;;;;;;3.50;1.60;;;23.80;99.90;;;;;;5031231;28;20201;-86
2023/06/22 02:03:12;;;;;;;3.97;1.50;;;23.70;99.90;;;;;;5034525;28;20209;-86
2023/06/22 02:05:50;;;;;;;3.53;1.80;;;23.50;99.90;;;;;;5032879;28;20215;-85
2023/06/22 02:08:24;;;;;;;2.93;1.77;;;23.20;99.90;;;;;;5034120;28;20228;-86
2023/06/22 02:10:57;;;;;;;3.43;1.90;;;22.70;99.90;;;;;;5032505;28;20210;-85
2023/06/22 02:13:29;;;;;;;2.13;1.53;;;22.20;99.90;;;;;;5024546;28;20198;-85
2023/06/22 02:16:03;;;;;;;2.03;1.67;;;21.80;99.90;;;;;;5042712;28;20196;-85
2023/06/22 02:18:35;;;;;;;2.87;1.70;;;21.40;99.90;;;;;;5040709;28;20242;-86
2023/06/22 02:21:06;;;;;;;3.53;1.80;;;21.40;99.90;;;;;;5039447;28;20228;-86
2023/06/22 02:23:37;;;;;;;2.57;1.87;;;21.20;99.90;;;;;;5023053;28;20217;-86
2023/06/22 02:26:08;;;;;;;3.13;1.97;;;21.10;99.90;;;;;;5023445;28;20201;-85
2023/06/22 02:28:39;;;;;;;3.30;1.70;;;21.00;99.90;;;;;;5032076;28;20216;-85
2023/06/22 02:31:12;;;;;;;6.67;2.23;;;20.80;99.90;;;;;;5028518;28;20205;-86
2023/06/22 02:33:44;;;;;;;6.97;1.90;;;20.50;99.90;;;;;;5042026;28;20263;-85
2023/06/22 02:36:16;;;;;;;2.57;1.83;;;20.30;99.90;;;;;;5045465;28;20567;-85
2023/06/22 02:38:48;;;;;;;2.17;1.97;;;20.20;99.90;;;;;;5025377;28;20232;-86
2023/06/22 02:41:19;;;;;;;3.33;1.90;;;19.90;99.90;;;;;;5030939;28;20205;-85
2023/06/22 02:43:50;;;;;;;3.47;1.67;;;19.80;99.90;;;;;;5030034;28;20197;-86
2023/06/22 02:46:23;;;;;;;2.43;1.83;;;19.60;99.90;;;;;;5028575;28;20214;-85
2023/06/22 02:48:54;;;;;;;2.73;1.80;;;19.50;99.90;;;;;;5018492;28;20208;-84
2023/06/22 02:51:25;;;;;;;3.13;1.63;;;19.40;99.90;;;;;;5029631;28;20201;-84
2023/06/22 02:53:57;;;;;;;2.23;1.90;;;19.30;99.90;;;;;;5026154;28;20564;-84
2023/06/22 02:56:28;;;;;;;3.40;1.83;;;19.30;99.90;;;;;;5022976;28;20205;-84
2023/06/22 02:59:01;;;;;;;3.77;1.80;;;19.10;99.90;;;;;;5030660;28;20235;-85
2023/06/22 03:01:39;;;;;;;4.13;2.03;;;19.10;99.90;;;;;;5027773;28;20276;-85
2023/06/22 03:04:11;;;;;;;3.13;1.90;;;19.00;99.90;;;;;;5026408;28;20209;-83
2023/06/22 03:06:42;;;;;;;4.23;2.00;;;18.90;99.90;;;;;;5023416;28;20212;-83
2023/06/22 03:09:13;;;;;;;5.57;2.20;;;18.80;99.90;;;;;;5033129;28;20279;-83
2023/06/22 03:11:44;;;;;;;5.43;2.70;;;18.80;99.90;;;;;;5029518;28;20690;-84
2023/06/22 03:14:15;;;;;;;4.27;1.70;;;18.70;99.90;;;;;;5034290;28;20236;-83
2023/06/22 03:16:47;;;;;;;4.20;2.30;;;18.50;99.90;;;;;;5029663;28;20207;-84
2023/06/22 03:19:19;;;;;;;5.97;2.13;;;18.40;99.90;;;;;;5046106;28;20233;-84
2023/06/22 03:21:50;;;;;;;3.80;1.90;;;18.30;99.90;;;;;;5044160;28;20237;-84
2023/06/22 03:24:21;;;;;;;2.73;1.50;;;18.20;99.90;;;;;;5037609;28;20201;-84
2023/06/22 03:26:52;;;;;;;2.30;1.93;;;18.10;99.90;;;;;;5030758;28;20203;-83
2023/06/22 03:29:23;;;;;;;3.70;2.10;;;18.00;99.90;;;;;;5029170;28;20211;-83
2023/06/22 03:31:56;;;;;;;2.80;2.00;;;17.80;99.90;;;;;;5025028;28;20288;-84
2023/06/22 03:34:27;;;;;;;4.10;2.17;;;17.70;99.90;;;;;;5024748;28;20197;-84
2023/06/22 03:36:58;;;;;;;2.97;2.10;;;17.70;99.90;;;;;;5029382;28;20534;-84
2023/06/22 03:39:29;;;;;;;3.57;1.80;;;17.50;99.90;;;;;;5031925;28;20319;-85
2023/06/22 03:42:00;;;;;;;3.00;2.07;;;17.40;99.90;;;;;;5047526;28;20271;-83
2023/06/22 03:44:30;;;;;;;4.27;1.97;;;17.30;99.90;;;;;;5028682;28;20665;-83
2023/06/22 03:47:03;;;;;;;5.67;2.37;;;17.20;99.90;;;;;;5021775;28;20220;-84
2023/06/22 03:49:34;;;;;;;6.33;2.23;;;17.20;99.90;;;;;;5028735;28;20211;-83
2023/06/22 03:52:06;;;;;;;4.27;2.50;;;17.10;99.90;;;;;;5029267;28;20202;-83
2023/06/22 03:54:37;;;;;;;5.27;1.80;;;17.00;99.90;;;;;;5022500;28;20217;-84
2023/06/22 03:57:08;;;;;;;2.67;1.90;;;16.90;99.90;;;;;;5034585;28;20568;-83
2023/06/22 03:59:39;;;;;;;4.07;2.57;;;16.80;99.90;;;;;;5033022;28;20228;-84
2023/06/22 04:02:11;;;;;;;3.83;1.80;;;16.70;99.90;;;;;;5029548;28;20208;-82
2023/06/22 04:04:42;;;;;;;3.73;2.40;;;16.60;99.90;;;;;;5026499;28;20750;-83
2023/06/22 04:07:13;;;;;;;3.37;2.50;;;16.60;99.90;;;;;;5022065;28;20292;-84
2023/06/22 04:09:44;;;;;;;2.40;2.13;;;16.50;99.90;;;;;;5029587;28;20237;-83
2023/06/22 04:12:15;;;;;;;5.97;2.63;;;16.50;99.90;;;;;;5029192;28;20213;-84
2023/06/22 04:14:46;;;;;;;2.90;2.23;;;16.40;99.90;;;;;;5024654;28;20201;-83
2023/06/22 04:17:19;;;;;;;4.07;2.30;;;16.30;99.90;;;;;;5027554;28;20201;-84
2023/06/22 04:19:49;;;;;;;3.63;2.00;;;16.30;99.90;;;;;;5029326;28;20248;-84
2023/06/22 04:22:21;;;;;;;2.50;1.97;;;16.20;99.90;;;;;;5031792;28;20214;-83
2023/06/22 04:24:52;;;;;;;3.87;2.37;;;16.10;99.90;;;;;;5027538;28;20201;-84
2023/06/22 04:27:23;;;;;;;3.47;1.97;;;16.00;99.90;;;;;;5026488;28;20673;-83
2023/06/22 04:29:54;;;;;;;4.77;2.07;;;16.00;99.90;;;;;;5027125;28;20207;-83
2023/06/22 04:32:27;;;;;;;3.43;2.40;;;15.90;99.90;;;;;;5025969;28;20206;-84
2023/06/22 04:35:00;;;;;;;4.73;2.50;;;15.80;99.90;;;;;;5023532;28;20205;-86
2023/06/22 04:37:30;;;;;;;2.80;2.23;;;15.80;99.90;;;;;;5031249;28;20205;-86
2023/06/22 04:40:03;;;;;;;3.17;2.20;;;15.70;99.90;;;;;;5030856;28;20582;-83
2023/06/22 04:42:37;;;;;;;3.50;2.27;;;15.70;99.90;;;;;;5014640;28;20206;-85
2023/06/22 04:45:10;;;;;;;3.93;2.40;;;15.60;99.90;;;;;;5015013;28;20604;-85
2023/06/22 04:47:42;;;;;;;3.30;2.20;;;15.60;99.90;;;;;;5028992;28;20208;-84
2023/06/22 04:50:14;;;;;;;4.43;2.13;;;15.50;99.90;;;;;;5029473;28;20263;-85
2023/06/22 04:52:45;;;;;;;2.97;2.33;;;15.40;99.90;;;;;;5030456;28;20194;-85
2023/06/22 04:55:19;;;;;;;3.87;2.33;;;15.30;99.90;;;;;;5023988;28;20208;-85
2023/06/22 04:57:51;;;;;;;3.70;2.30;;;15.30;99.90;;;;;;5026439;28;20200;-83
2023/06/22 05:00:22;;;;;;;5.03;2.30;;;15.20;99.90;;;;;;5031529;28;20229;-84
2023/06/22 05:02:56;;;;;;;4.40;2.17;;;15.20;99.90;;;;;;5031422;28;20213;-82
2023/06/22 05:05:47;;;;;;;3.33;2.40;;;15.10;99.90;;;;;;5010334;28;20201;-83
2023/06/22 05:08:19;;;;;;;2.57;2.00;;;15.10;99.90;;;;;;5029746;28;20244;-84
2023/06/22 05:10:50;;;;;;;4.50;1.90;;;15.10;99.90;;;;;;5014325;28;20662;-84
2023/06/22 05:13:34;;;;;;;3.87;1.80;;;15.00;99.90;;;;;;5028715;28;20200;-84
2023/06/22 05:16:05;;;;;;;3.60;1.73;;;15.00;99.90;;;;;;5012732;28;20202;-84
2023/06/22 05:18:39;;;;;;;3.63;1.87;;;14.90;99.90;;;;;;5012480;28;20206;-82
2023/06/22 05:21:11;;;;;;;4.07;2.10;;;14.90;99.90;;;;;;5038799;28;20238;-84
2023/06/22 05:23:42;;;;;;;3.37;1.93;;;14.80;99.90;;;;;;5065801;28;20216;-84
2023/06/22 05:26:13;;;;;;;4.00;2.03;;;14.80;99.90;;;;;;5057951;28;20235;-89
2023/06/22 05:28:45;;;;;;;3.03;1.70;;;14.80;99.90;;;;;;5035283;28;20208;-89
2023/06/22 05:31:17;;;;;;;3.40;1.90;;;14.80;99.90;;;;;;5055252;28;20219;-89
2023/06/22 05:33:54;;;;;;;2.90;2.00;;;14.70;99.90;;;;;;5051641;28;20209;-89
2023/06/22 05:36:26;;;;;;;3.17;2.07;;;14.70;99.90;;;;;;5035283;28;20695;-91
2023/06/22 05:38:59;;;;;;;3.97;2.10;;;14.60;99.90;;;;;;5037795;28;20578;-89
2023/06/22 05:41:30;;;;;;;3.83;2.00;;;14.60;99.90;;;;;;5015460;28;20316;-89
2023/06/22 05:44:02;;;;;;;4.20;1.90;;;14.50;99.90;;;;;;5013742;28;20213;-88
2023/06/22 05:46:34;;;;;;;4.07;1.83;;;14.50;99.90;;;;;;5025533;28;20678;-89
2023/06/22 05:49:07;;;;;;;3.37;1.80;;;14.40;99.90;;;;;;5027689;28;20220;-90
2023/06/22 05:51:39;;;;;;;3.10;1.97;;;14.40;99.90;;;;;;5026352;28;20196;-90
2023/06/22 05:54:10;;;;;;;3.63;2.00;;;14.40;99.90;;;;;;5029961;28;20209;-88
2023/06/22 05:56:41;;;;;;;6.10;2.30;;;14.40;99.90;;;;;;5027970;28;20220;-89
2023/06/22 05:59:12;;;;;;;3.23;2.27;;;14.30;99.90;;;;;;5013358;28;20209;-89
2023/06/22 06:01:43;;;;;;;4.07;2.33;;;14.30;99.90;;;;;;5016233;28;20599;-90
2023/06/22 06:04:18;;;;;;;4.53;2.50;;;14.20;99.90;;;;;;5017514;28;20653;-89
2023/06/22 06:06:49;;;;;;;2.67;2.07;;;14.10;99.90;;;;;;5013902;28;20201;-89
2023/06/22 06:09:21;;;;;;;2.53;1.90;;;14.10;99.90;;;;;;5028811;28;20212;-89
2023/06/22 06:11:52;;;;;;;2.20;2.00;;;14.10;99.90;;;;;;5032615;28;20213;-89
2023/06/22 06:14:23;;;;;;;3.67;2.07;;;14.00;99.90;;;;;;5033834;28;20213;-88
2023/06/22 06:16:55;;;;;;;3.80;2.17;;;14.00;99.90;;;;;;5028925;28;20209;-88
2023/06/22 06:19:28;;;;;;;3.30;2.10;;;13.90;99.90;;;;;;5033575;28;20213;-90
2023/06/22 06:22:00;;;;;;;3.83;2.13;;;13.90;99.90;;;;;;5027676;28;20285;-89
2023/06/22 06:24:31;;;;;;;3.80;2.00;;;13.80;99.90;;;;;;5013955;28;20206;-90
2023/06/22 06:27:04;;;;;;;5.93;2.70;;;13.80;99.90;;;;;;5020790;28;20205;-89
2023/06/22 06:29:36;;;;;;;4.07;2.53;;;13.70;99.90;;;;;;5015648;28;20206;-90
2023/06/22 06:32:08;;;;;;;2.57;2.00;;;13.70;99.90;;;;;;5047327;28;20212;-90
2023/06/22 06:34:42;;;;;;;3.70;2.17;;;13.60;99.90;;;;;;5042797;28;20205;-90
2023/06/22 06:37:14;;;;;;;4.50;2.30;;;13.50;99.90;;;;;;5013091;28;20209;-90
2023/06/22 06:39:45;;;;;;;3.20;2.50;;;13.50;99.90;;;;;;5029836;28;20465;-89
2023/06/22 06:42:16;;;;;;;2.50;2.20;;;13.50;99.90;;;;;;5033134;28;20244;-89
2023/06/22 06:44:47;;;;;;;4.07;2.20;;;13.40;99.90;;;;;;5027612;28;20210;-89
2023/06/22 06:47:19;;;;;;;2.33;2.07;;;13.40;99.90;;;;;;5018027;28;20213;-90
2023/06/22 06:49:52;;;;;;;3.57;2.40;;;13.40;99.90;;;;;;5048730;28;20216;-89
2023/06/22 06:52:27;;;;;;;4.07;2.30;;;13.30;99.90;;;;;;5038545;28;20200;-89
2023/06/22 06:54:58;;;;;;;3.17;2.10;;;13.30;99.90;;;;;;5030852;28;20235;-89
2023/06/22 06:57:30;;;;;;;3.57;2.40;;;13.30;99.90;;;;;;5033067;28;20296;-90
2023/06/22 07:00:01;;;;;;;4.23;2.50;;;13.30;99.90;;;;;;5032227;28;20209;-89
2023/06/22 07:02:32;;;;;;;3.33;2.40;;;13.20;99.90;;;;;;5033414;28;20519;-88
2023/06/22 07:05:06;;;;;;;6.40;2.80;;;13.20;99.90;;;;;;5022919;28;20237;-88
2023/06/22 07:07:37;;;;;;;3.63;2.33;;;13.10;99.90;;;;;;5032319;28;20619;-86
2023/06/22 07:10:10;;;;;;;2.73;2.20;;;13.10;99.90;;;;;;5025857;28;20222;-89
2023/06/22 07:12:41;;;;;;;4.33;2.30;;;13.00;99.90;;;;;;5013153;28;20340;-89
2023/06/22 07:15:13;;;;;;;3.10;2.13;;;13.00;99.90;;;;;;5020844;28;20205;-89
2023/06/22 07:17:44;;;;;;;5.50;2.60;;;13.00;99.90;;;;;;5032801;28;20205;-89
2023/06/22 07:20:19;;;;;;;3.10;2.27;;;13.00;99.90;;;;;;5034133;28;20299;-89
2023/06/22 07:22:50;;;;;;;3.67;2.50;;;13.00;99.90;;;;;;5034592;28;20213;-90
2023/06/22 07:25:22;;;;;;;3.20;2.60;;;13.00;99.90;;;;;;5046000;28;20197;-89
2023/06/22 07:28:01;;;;;;;4.23;2.40;;;12.90;99.90;;;;;;5046972;28;20190;-90
2023/06/22 07:30:33;;;;;;;4.10;2.53;;;12.90;99.90;;;;;;5026551;28;20299;-89
2023/06/22 07:33:08;;;;;;;4.40;2.60;;;13.00;99.90;;;;;;5020018;28;20240;-89
2023/06/22 07:35:41;;;;;;;5.30;2.37;;;13.00;99.90;;;;;;5022040;28;20247;-89
2023/06/22 07:38:12;;;;;;;4.00;2.60;;;13.00;99.90;;;;;;5019102;28;20197;-89
2023/06/22 07:40:44;;;;;;;3.30;2.90;;;13.00;99.90;;;;;;5039978;28;20251;-89
2023/06/22 07:43:15;;;;;;;6.63;2.90;;;13.00;99.90;;;;;;5021140;28;20232;-88
2023/06/22 07:45:54;;;;;;;3.10;2.90;;;12.90;99.90;;;;;;5033002;28;20236;-90
2023/06/22 07:48:24;;;;;;;5.07;2.80;;;12.90;99.90;;;;;;5050695;28;20201;-89
2023/06/22 07:50:57;;;;;;;5.67;2.90;;;12.90;99.90;;;;;;5041150;28;20285;-89
2023/06/22 07:53:29;;;;;;;4.00;2.57;;;12.90;99.90;;;;;;5036872;28;20213;-88
2023/06/22 07:56:00;;;;;;;3.37;2.60;;;12.90;99.90;;;;;;5036068;28;20263;-89
2023/06/22 07:58:30;;;;;;;5.23;3.20;;;12.90;99.90;;;;;;5035519;28;20235;-89
2023/06/22 08:01:02;;;;;;;3.53;2.67;;;12.80;99.90;;;;;;5036063;28;20233;-89
2023/06/22 08:03:33;;;;;;;3.33;2.50;;;12.80;99.90;;;;;;5035618;28;20287;-89
2023/06/22 08:06:08;;;;;;;3.23;2.73;;;12.70;99.90;;;;;;5035921;28;20212;-88
2023/06/22 08:08:39;;;;;;;4.40;2.93;;;12.70;99.90;;;;;;5044092;28;20281;-89
2023/06/22 08:11:10;;;;;;;2.83;2.60;;;12.60;99.90;;;;;;5043974;28;20283;-89
2023/06/22 08:13:41;;;;;;;7.00;2.73;;;12.50;99.90;;;;;;5035415;28;20204;-89
2023/06/22 08:16:13;;;;;;;3.50;2.60;;;12.50;99.90;;;;;;5035749;28;20281;-90
2023/06/22 08:18:44;;;;;;;5.10;2.87;;;12.40;99.90;;;;;;5050338;28;20197;-88
2023/06/22 08:21:18;;;;;;;5.70;3.00;;;12.30;99.90;;;;;;5015708;28;20764;-89
2023/06/22 08:23:50;;;;;;;5.83;3.23;;;12.40;99.90;;;;;;5015058;28;20214;-89
2023/06/22 08:26:21;;;;;;;2.70;2.50;;;12.40;99.90;;;;;;5043797;28;20212;-89
2023/06/22 08:28:54;;;;;;;5.17;2.77;;;12.40;99.90;;;;;;5037444;28;20213;-89
2023/06/22 08:31:25;;;;;;;3.17;2.70;;;12.30;99.90;;;;;;5021334;28;20213;-88
2023/06/22 08:33:56;;;;;;;3.17;2.87;;;12.30;99.90;;;;;;5024843;28;20228;-89
2023/06/22 08:36:35;;;;;;;4.47;2.80;;;12.30;99.90;;;;;;5055242;28;20254;-89
2023/06/22 08:39:06;;;;;;;5.53;3.00;;;12.30;99.90;;;;;;5035124;28;20657;-90
2023/06/22 08:41:37;;;;;;;2.97;2.67;;;12.30;99.90;;;;;;5032766;28;20296;-89
2023/06/22 08:44:08;;;;;;;4.00;2.87;;;12.20;99.90;;;;;;5034473;28;20301;-89
2023/06/22 08:46:40;;;;;;;4.77;3.00;;;12.20;99.90;;;;;;5034329;28;20213;-89
2023/06/22 08:49:11;;;;;;;4.30;3.00;;;12.10;99.90;;;;;;5033871;28;20304;-89
2023/06/22 08:51:45;;;;;;;5.20;3.10;;;12.10;99.90;;;;;;5034888;28;20295;-88
2023/06/22 08:54:17;;;;;;;4.33;2.70;;;12.10;99.90;;;;;;5015018;28;20289;-89
2023/06/22 08:56:49;;;;;;;4.70;2.67;;;12.10;99.90;;;;;;5018439;28;20201;-87
2023/06/22 08:59:20;;;;;;;3.03;2.70;;;12.10;99.90;;;;;;5043956;28;20258;-88
2023/06/22 09:01:52;;;;;;;5.73;3.13;;;12.00;99.90;;;;;;5033167;28;20324;-89
2023/06/22 09:04:23;;;;;;;6.33;2.97;;;12.00;99.90;;;;;;5014906;28;20213;-89
2023/06/22 09:06:57;;;;;;;3.97;2.90;;;12.00;99.90;;;;;;5033894;28;20213;-88
2023/06/22 09:09:28;;;;;;;3.57;2.80;;;12.00;99.90;;;;;;5044474;28;20193;-90
2023/06/22 09:11:59;;;;;;;3.80;2.80;;;11.90;99.90;;;;;;5042931;28;20223;-90
2023/06/22 09:14:31;;;;;;;3.57;3.20;;;11.90;99.90;;;;;;5015166;28;20205;-89
2023/06/22 09:17:02;;;;;;;4.73;3.53;;;12.00;99.90;;;;;;5015170;28;20645;-89
2023/06/22 09:19:34;;;;;;;4.53;3.40;;;11.90;99.90;;;;;;5025153;28;20620;-89
2023/06/22 09:22:08;;;;;;;5.93;3.10;;;11.90;99.90;;;;;;5035418;28;20302;-89
2023/06/22 09:24:40;;;;;;;4.57;3.60;;;11.90;99.90;;;;;;5035046;28;20215;-89
2023/06/22 09:27:12;;;;;;;6.03;3.37;;;11.90;99.90;;;;;;5049517;28;20188;-90
2023/06/22 09:29:45;;;;;;;5.33;3.87;;;11.90;99.90;;;;;;5057129;28;20201;-90
2023/06/22 09:32:16;;;;;;;6.60;3.50;;;11.90;99.90;;;;;;5040509;28;20203;-89
2023/06/22 09:34:48;;;;;;;13.13;3.33;;;11.70;99.90;;;;;;5035369;28;20283;-89
2023/06/22 09:37:21;;;;;;;5.77;3.73;;;11.70;99.90;;;;;;5030851;28;20281;-89
2023/06/22 09:39:53;;;;;;;5.27;3.47;;;11.70;99.90;;;;;;5027640;28;20205;-87
2023/06/22 09:42:25;;;;;;;5.07;3.90;;;11.60;99.90;;;;;;5035257;28;20232;-89
2023/06/22 09:44:57;;;;;;;5.20;3.47;;;11.60;99.90;;;;;;5035599;28;20323;-89
2023/06/22 09:47:29;;;;;;;5.97;3.57;;;11.60;99.90;;;;;;5021541;28;20209;-95
2023/06/22 09:50:01;;;;;;;5.33;3.40;;;11.60;99.90;;;;;;5034589;28;20201;-89
2023/06/22 09:52:34;;;;;;;4.73;3.30;;;11.50;99.90;;;;;;5022847;28;20209;-89
2023/06/22 09:55:10;;;;;;;4.83;3.50;;;11.50;99.90;;;;;;5026218;28;20631;-89
2023/06/22 09:57:42;;;;;;;4.13;3.30;;;11.50;99.90;;;;;;5033599;28;20616;-89
2023/06/22 10:00:15;;;;;;;5.93;3.77;;;11.50;99.90;;;;;;5033342;28;20209;-89
2023/06/22 10:02:48;;;;;;;4.87;3.37;;;11.50;99.90;;;;;;5035976;28;20229;-89
2023/06/22 10:05:20;;;;;;;5.73;3.10;;;11.40;99.90;;;;;;5054146;28;20230;-91
2023/06/22 10:07:54;;;;;;;4.47;3.77;;;11.40;99.90;;;;;;5040392;28;20291;-89
2023/06/22 10:10:25;;;;;;;4.47;3.40;;;11.40;99.90;;;;;;5047742;28;20213;-89
2023/06/22 10:12:59;;;;;;;4.93;3.67;;;11.40;99.90;;;;;;5029943;28;20616;-88
2023/06/22 10:15:30;;;;;;;7.03;3.70;;;11.40;99.90;;;;;;5033984;28;20205;-89
2023/06/22 10:18:02;;;;;;;4.70;3.63;;;11.40;99.90;;;;;;5033372;28;20212;-88
2023/06/22 10:20:34;;;;;;;5.17;3.60;;;11.40;99.90;;;;;;5035130;28;20739;-88
2023/06/22 10:23:07;;;;;;;4.13;3.57;;;11.40;99.90;;;;;;5031970;28;20225;-88
2023/06/22 10:25:38;;;;;;;5.10;3.70;;;11.40;99.90;;;;;;5032912;28;20221;-89
2023/06/22 10:28:10;;;;;;;5.63;3.50;;;11.40;99.90;;;;;;5027809;28;20201;-89
2023/06/22 10:30:42;;;;;;;5.63;3.90;;;11.40;99.90;;;;;;5026845;28;20301;-89
2023/06/22 10:33:15;;;;;;;4.93;3.80;;;11.40;99.90;;;;;;5032098;28;20282;-89
2023/06/22 10:35:46;;;;;;;4.93;3.90;;;11.40;99.90;;;;;;5032332;28;20287;-88
2023/06/22 10:38:21;;;;;;;5.13;3.33;;;11.40;99.90;;;;;;5029565;28;20646;-89
2023/06/22 10:40:52;;;;;;;5.70;3.67;;;11.40;99.90;;;;;;5027807;28;20206;-89
2023/06/22 10:43:25;;;;;;;6.07;3.27;;;11.40;99.90;;;;;;5022225;28;20235;-88
2023/06/22 10:45:56;;;;;;;4.57;3.33;;;11.40;99.90;;;;;;5032398;28;20582;-89
2023/06/22 10:48:28;;;;;;;4.67;4.10;;;11.30;99.90;;;;;;5025594;28;20209;-90
2023/06/22 10:50:59;;;;;;;6.53;3.97;;;11.30;99.90;;;;;;5030643;28;20237;-89
2023/06/22 10:53:32;;;;;;;4.40;3.40;;;11.30;99.90;;;;;;5025230;28;20216;-88
2023/06/22 10:56:03;;;;;;;4.23;3.80;;;11.30;99.90;;;;;;5032275;28;20259;-89
2023/06/22 10:58:34;;;;;;;4.67;3.50;;;11.30;99.90;;;;;;5031744;28;20205;-89
2023/06/22 11:01:06;;;;;;;5.90;3.87;;;11.20;99.90;;;;;;5027191;28;20217;-87
2023/06/22 11:03:44;;;;;;;5.70;3.60;;;11.20;99.90;;;;;;5012783;28;20635;-89
2023/06/22 11:06:16;;;;;;;4.40;3.10;;;11.20;99.90;;;;;;5028751;28;20267;-89
2023/06/22 11:08:49;;;;;;;4.63;3.53;;;11.10;99.90;;;;;;5021563;28;20249;-90
2023/06/22 11:11:36;;;;;;;7.00;4.03;;;11.10;99.90;;;;;;5031420;28;21058;-88
2023/06/22 11:14:07;;;;;;;6.13;3.77;;;11.10;99.90;;;;;;5029405;28;20201;-89
2023/06/22 11:16:38;;;;;;;5.23;3.90;;;11.10;99.90;;;;;;5032975;28;20204;-89
2023/06/22 11:19:08;;;;;;;5.00;4.00;;;11.00;99.90;;;;;;5031906;28;20676;-88
2023/06/22 11:21:40;;;;;;;5.30;3.90;;;11.00;99.90;;;;;;5033169;28;20688;-89
2023/06/22 11:24:14;;;;;;;4.00;3.60;;;11.00;99.90;;;;;;5026269;28;20218;-89
2023/06/22 11:26:45;;;;;;;4.17;3.50;;;11.00;99.90;;;;;;5034346;28;20288;-88
2023/06/22 11:29:17;;;;;;;6.97;4.30;;;11.00;99.90;;;;;;4684477;28;9999993;-88
2023/06/22 11:32:07;;;;;;;4.90;3.93;;;10.90;99.90;;;;;;5045250;28;20279;-89
2023/06/22 11:34:42;;;;;;;7.30;4.40;;;10.90;99.90;;;;;;5033932;28;20243;-89
2023/06/22 11:37:13;;;;;;;5.43;3.90;;;10.90;99.90;;;;;;5023299;28;20209;-89
2023/06/22 11:39:47;;;;;;;9.33;4.40;;;10.80;99.90;;;;;;5016048;28;20694;-88
2023/06/22 11:42:23;;;;;;;6.30;4.43;;;10.80;99.90;;;;;;5047254;28;20208;-89
2023/06/22 11:44:54;;;;;;;6.63;4.23;;;10.80;99.90;;;;;;5036624;28;20208;-89
2023/06/22 11:47:28;;;;;;;7.03;3.97;;;10.80;99.90;;;;;;5024812;28;20209;-92
2023/06/22 11:50:00;;;;;;;6.73;4.07;;;10.80;99.90;;;;;;5034366;28;20714;-89
2023/06/22 11:52:32;;;;;;;4.90;3.70;;;10.80;99.90;;;;;;5025486;28;20221;-89
2023/06/22 11:55:06;;;;;;;6.40;3.97;;;10.80;99.90;;;;;;5025097;28;20206;-88
2023/06/22 11:57:39;;;;;;;7.27;4.53;;;10.80;99.90;;;;;;5031433;28;20203;-90
2023/06/22 12:00:17;;;;;;;4.97;4.17;;;10.70;99.90;;;;;;5016206;28;20221;-88
2023/06/22 12:02:49;;;;;;;5.27;4.20;;;10.70;99.90;;;;;;5038545;28;20220;-89
2023/06/22 12:05:22;;;;;;;4.33;3.80;;;10.70;99.90;;;;;;5040803;28;20209;-90
2023/06/22 12:07:55;;;;;;;5.47;4.13;;;10.70;99.90;;;;;;5034941;28;21077;-88
2023/06/22 12:10:29;;;;;;;5.10;4.10;;;10.70;99.90;;;;;;5035829;28;20213;-89
2023/06/22 12:13:01;;;;;;;6.03;4.03;;;10.70;99.90;;;;;;5034583;28;20209;-88
2023/06/22 12:15:33;;;;;;;5.40;4.17;;;10.70;99.90;;;;;;5035683;28;20277;-88
2023/06/22 12:18:04;;;;;;;7.47;4.07;;;10.60;99.90;;;;;;5033505;28;20301;-89
2023/06/22 12:20:36;;;;;;;8.40;4.30;;;10.60;99.90;;;;;;5035624;28;20221;-89
2023/06/22 12:23:07;;;;;;;6.40;4.03;;;10.60;99.90;;;;;;5036052;28;20311;-89
2023/06/22 12:25:41;;;;;;;6.33;4.20;;;10.60;99.90;;;;;;5047174;28;20219;-89
2023/06/22 12:28:12;;;;;;;6.50;4.50;;;10.60;99.90;;;;;;5041680;28;20280;-89
2023/06/22 12:30:43;;;;;;;6.77;4.30;;;10.60;99.90;;;;;;5034640;28;20208;-88
2023/06/22 12:33:15;;;;;;;7.27;4.20;;;10.60;99.90;;;;;;5034903;28;20204;-88
2023/06/22 12:35:48;;;;;;;5.10;3.90;;;10.60;99.90;;;;;;5035383;28;20232;-89
2023/06/22 12:38:20;;;;;;;7.10;4.60;;;10.60;99.90;;;;;;5030828;28;20213;-89
2023/06/22 12:40:53;;;;;;;7.70;4.77;;;10.60;99.90;;;;;;5015723;28;20293;-89
2023/06/22 12:43:25;;;;;;;5.10;4.60;;;10.60;99.90;;;;;;5034493;28;20229;-90
2023/06/22 12:45:56;;;;;;;6.43;4.83;;;10.60;99.90;;;;;;5035244;28;20887;-90
2023/06/22 12:48:29;;;;;;;5.20;4.40;;;10.70;99.90;;;;;;5031436;28;20212;-89
2023/06/22 12:51:01;;;;;;;8.97;5.17;;;10.70;99.90;;;;;;5037528;28;20320;-89
2023/06/22 12:53:33;;;;;;;6.43;5.10;;;10.70;99.90;;;;;;5055599;28;20231;-89
2023/06/22 12:56:06;;;;;;;11.17;4.73;;;10.70;99.90;;;;;;5053694;28;20208;-90
2023/06/22 12:58:38;;;;;;;7.40;4.60;;;10.70;99.90;;;;;;5025865;28;20629;-90
2023/06/22 13:01:09;;;;;;;7.23;4.37;;;10.70;99.90;;;;;;5032490;28;20216;-89
2023/06/22 13:03:41;;;;;;;6.37;4.40;;;10.70;99.90;;;;;;5018853;28;20240;-89
2023/06/22 13:06:13;;;;;;;7.87;5.23;;;10.80;99.90;;;;;;5018585;28;20228;-89
2023/06/22 13:08:44;;;;;;;6.50;4.60;;;10.80;99.90;;;;;;5020607;28;20239;-89
2023/06/22 13:11:21;;;;;;;7.30;4.60;;;10.80;99.90;;;;;;5028320;28;20209;-88